Time;durP1;ratioP1;P1;durP2;ratioP2;P2;SDS_P1;SDS_P2;PMS_P1;PMS_P2;Temp;Humidity;BMP_temperature;BMP_pressure;BME280_temperature;BME280_humidity;BME280_pressure;Samples;Min_cycle;Max_cycle;Signal;HPM_P1;HPM_P2
2022/12/26 00:02:08;;;;;;;0.52;0.52;;;;;;;4.04;100.00;99875.16;5064228;28;20017;-66
2022/12/26 00:04:33;;;;;;;0.50;0.50;;;;;;;3.94;100.00;99875.06;5064543;28;20029;-67
2022/12/26 00:06:59;;;;;;;0.50;0.50;;;;;;;3.96;100.00;99873.34;5064390;28;20025;-67
2022/12/26 00:09:24;;;;;;;0.50;0.50;;;;;;;3.92;100.00;99870.72;5062592;28;20052;-66
2022/12/26 00:11:50;;;;;;;0.50;0.50;;;;;;;3.90;100.00;99867.31;5064207;28;20029;-67
2022/12/26 00:14:16;;;;;;;0.50;0.50;;;;;;;3.89;100.00;99873.28;5064182;28;20036;-67
2022/12/26 00:16:43;;;;;;;0.50;0.50;;;;;;;3.88;100.00;99864.72;5067444;28;20025;-66
2022/12/26 00:19:09;;;;;;;0.50;0.50;;;;;;;3.89;100.00;99865.56;5066932;28;20071;-66
2022/12/26 00:21:34;;;;;;;0.50;0.50;;;;;;;3.91;100.00;99867.31;5068318;28;20082;-67
2022/12/26 00:24:00;;;;;;;0.50;0.50;;;;;;;3.92;100.00;99876.75;5067976;28;20081;-66
2022/12/26 00:26:29;;;;;;;0.50;0.50;;;;;;;3.91;100.00;99857.06;5066590;28;20040;-67
2022/12/26 00:28:55;;;;;;;0.50;0.50;;;;;;;3.93;100.00;99864.78;5068350;28;20098;-69
2022/12/26 00:31:23;;;;;;;0.50;0.50;;;;;;;3.94;100.00;99866.47;5068360;28;20029;-68
2022/12/26 00:33:49;;;;;;;0.50;0.50;;;;;;;3.92;100.00;99865.59;5068457;28;20032;-67
2022/12/26 00:36:24;;;;;;;0.57;0.57;;;;;;;3.94;100.00;99854.50;5068629;28;20079;-69
2022/12/26 00:38:50;;;;;;;0.40;0.40;;;;;;;3.95;100.00;99851.09;5068369;28;20029;-68
2022/12/26 00:41:17;;;;;;;0.50;0.50;;;;;;;3.95;100.00;99853.66;5068143;28;20032;-67
2022/12/26 00:43:42;;;;;;;0.50;0.50;;;;;;;3.97;100.00;99853.66;5068341;28;20025;-68
2022/12/26 00:46:08;;;;;;;0.50;0.50;;;;;;;3.96;100.00;99847.66;5066932;28;20029;-69
2022/12/26 00:48:34;;;;;;;0.50;0.50;;;;;;;3.97;100.00;99848.53;5068017;28;20077;-69
2022/12/26 00:51:00;;;;;;;0.68;0.68;;;;;;;4.01;100.00;99852.84;5068396;28;20059;-67
2022/12/26 00:53:26;;;;;;;0.50;0.50;;;;;;;4.03;100.00;99847.72;5066719;28;20017;-69
2022/12/26 00:55:52;;;;;;;0.50;0.50;;;;;;;4.02;100.00;99846.88;5067696;28;20045;-67
2022/12/26 00:58:18;;;;;;;0.50;0.50;;;;;;;4.05;100.00;99846.03;5067587;28;20029;-67
2022/12/26 01:00:44;;;;;;;0.50;0.50;;;;;;;4.02;100.00;99828.03;5067451;28;20017;-65
2022/12/26 01:03:10;;;;;;;0.50;0.50;;;;;;;4.01;100.00;99829.72;5067386;28;20045;-65
2022/12/26 01:05:43;;;;;;;0.50;0.50;;;;;;;4.03;100.00;99827.16;5067394;28;20025;-67
2022/12/26 01:08:10;;;;;;;0.50;0.50;;;;;;;4.02;100.00;99828.03;5067402;28;20040;-66
2022/12/26 01:10:35;;;;;;;0.50;0.50;;;;;;;4.03;100.00;99829.75;5067284;28;20342;-66
2022/12/26 01:13:00;;;;;;;0.50;0.50;;;;;;;4.06;100.00;99816.91;5067397;28;20032;-66
2022/12/26 01:15:26;;;;;;;0.50;0.50;;;;;;;4.09;100.00;99830.66;5067148;28;20025;-66
2022/12/26 01:17:51;;;;;;;0.50;0.50;;;;;;;4.11;100.00;99829.81;5067192;28;20104;-65
2022/12/26 01:20:17;;;;;;;0.50;0.50;;;;;;;4.13;100.00;99825.56;5067198;28;20025;-66
2022/12/26 01:22:42;;;;;;;0.50;0.50;;;;;;;4.10;100.00;99810.97;5065642;28;20259;-66
2022/12/26 01:25:09;;;;;;;0.50;0.50;;;;;;;4.09;100.00;99811.81;5067023;28;20044;-67
2022/12/26 01:27:34;;;;;;;0.50;0.50;;;;;;;4.12;100.00;99819.53;5066354;28;20028;-67
2022/12/26 01:30:00;;;;;;;0.50;0.50;;;;;;;4.12;100.00;99818.69;5066933;28;20025;-66
2022/12/26 01:32:25;;;;;;;0.50;0.50;;;;;;;4.14;100.00;99819.59;5066854;28;20025;-67
2022/12/26 01:34:54;;;;;;;0.50;0.50;;;;;;;4.14;100.00;99822.16;5066847;28;20040;-66
2022/12/26 01:37:19;;;;;;;0.50;0.50;;;;;;;4.13;100.00;99818.72;5066842;28;20102;-66
2022/12/26 01:39:45;;;;;;;0.50;0.50;;;;;;;4.12;100.00;99808.44;5065293;28;20025;-67
2022/12/26 01:42:13;;;;;;;0.50;0.50;;;;;;;4.11;100.00;99801.53;5066768;28;20032;-65
2022/12/26 01:44:59;;;;;;;0.50;0.50;;;;;;;4.13;100.00;99805.00;5066661;28;20076;-66
2022/12/26 01:47:52;;;;;;;0.50;0.50;;;;;;;4.11;100.00;99796.41;5066635;28;20095;-67
2022/12/26 01:50:44;;;;;;;0.50;0.50;;;;;;;4.12;100.00;99798.97;5066802;28;20044;-68
2022/12/26 01:53:28;;;;;;;0.60;0.60;;;;;;;4.12;100.00;99798.97;5066460;28;20025;-67
2022/12/26 01:56:00;;;;;;;0.50;0.50;;;;;;;4.12;100.00;99786.13;5066315;28;20032;-66
2022/12/26 01:58:32;;;;;;;;;;;;;;;4.12;100.00;99786.13;5067043;28;20017;-67
2022/12/26 02:01:00;;;;;;;0.50;0.50;;;;;;;4.07;100.00;99780.97;5066516;28;19908;-66
2022/12/26 02:06:12;;;;;;;0.50;0.50;;;;;;;4.04;100.00;99770.66;5066404;28;20031;-66
2022/12/26 02:08:38;;;;;;;0.50;0.50;;;;;;;4.09;100.00;99778.41;5066348;28;20053;-66
2022/12/26 02:11:21;;;;;;;0.50;0.50;;;;;;;4.06;100.00;99788.66;5066172;28;20031;-66
2022/12/26 02:13:47;;;;;;;0.50;0.50;;;;;;;4.03;100.00;99776.66;5066226;28;20025;-68
2022/12/26 02:16:15;;;;;;;0.50;0.50;;;;;;;4.04;100.00;99773.25;5066306;28;20162;-67
2022/12/26 02:18:41;;;;;;;0.50;0.50;;;;;;;4.05;100.00;99763.84;5066210;28;20025;-67
2022/12/26 02:21:38;;;;;;;0.50;0.50;;;;;;;4.05;100.00;99774.09;5064799;28;20029;-67
2022/12/26 02:24:25;;;;;;;0.50;0.50;;;;;;;4.04;100.00;99777.53;5066120;28;20028;-67
2022/12/26 02:27:15;;;;;;;0.47;0.47;;;;;;;4.02;100.00;99756.97;5066459;28;20017;-67
2022/12/26 02:30:02;;;;;;;0.60;0.60;;;;;;;4.01;100.00;99759.53;5066199;28;20534;-67
2022/12/26 02:33:15;;;;;;;0.50;0.50;;;;;;;3.96;100.00;99747.50;5064332;28;20053;-68
2022/12/26 02:35:58;;;;;;;;;;;;;;;3.99;100.00;99748.38;5044011;28;20029;-68
2022/12/26 02:38:44;;;;;;;0.50;0.50;;;;;;;3.94;100.00;99749.22;5042704;28;19909;-67
2022/12/26 02:41:16;;;;;;;0.60;0.60;;;;;;;3.91;100.00;99744.06;5026563;28;20366;-66
2022/12/26 02:43:53;;;;;;;0.40;0.40;;;;;;;3.89;100.00;99740.59;5026827;28;20029;-66
2022/12/26 02:47:03;;;;;;;0.50;0.50;;;;;;;3.88;100.00;99749.16;5043724;28;20025;-67
2022/12/26 03:13:09;;;;;;;0.50;0.50;;;;;;;3.87;100.00;99732.00;5043180;28;20049;-66
2022/12/26 03:13:11;;;;;;;0.50;0.50;;;;;;;3.76;100.00;99718.22;5065385;28;20082;-67
2022/12/26 03:18:52;;;;;;;0.50;0.50;;;;;;;3.74;100.00;99713.06;5065079;28;20028;-65
2022/12/26 03:21:22;;;;;;;0.50;0.50;;;;;;;3.72;100.00;99710.50;5065326;28;20103;-66
2022/12/26 03:23:54;;;;;;;0.50;0.50;;;;;;;3.75;100.00;99712.25;5064961;28;20483;-68
2022/12/26 03:26:42;;;;;;;0.50;0.50;;;;;;;3.76;100.00;99713.09;5064856;28;20036;-67
2022/12/26 03:32:11;;;;;;;0.60;0.60;;;;;;;3.77;100.00;99725.09;5064877;28;20032;-66
2022/12/26 03:34:41;;;;;;;0.50;0.50;;;;;;;3.76;100.00;99702.81;5064746;28;20033;-67
2022/12/26 03:37:38;;;;;;;0.50;0.50;;;;;;;3.76;100.00;99700.25;5064932;28;20075;-66
2022/12/26 04:44:09;;;;;;;0.50;0.50;;;;;;;3.81;100.00;99653.22;5064248;28;20092;-67
2022/12/26 04:46:46;;;;;;;0.50;0.50;;;;;;;3.83;100.00;99656.66;5064063;28;20040;-67
2022/12/26 04:52:00;;;;;;;0.50;0.50;;;;;;;3.84;100.00;99660.97;5063894;28;20031;-67
2022/12/26 04:54:26;;;;;;;0.50;0.50;;;;;;;3.77;100.00;99650.63;5063691;28;20426;-66
2022/12/26 04:56:52;;;;;;;11.80;2.58;;;;;;;3.81;100.00;99647.22;5063833;28;20017;-67
2022/12/26 04:59:18;;;;;;;0.70;0.70;;;;;;;3.85;100.00;99654.09;5062538;28;20028;-67
2022/12/26 05:10:04;;;;;;;0.50;0.50;;;;;;;3.83;100.00;99648.09;5067273;28;20036;-66
2022/12/26 05:12:29;;;;;;;0.50;0.50;;;;;;;3.83;100.00;99648.09;5067150;28;20021;-67
2022/12/26 05:14:55;;;;;;;0.50;0.50;;;;;;;3.85;100.00;99641.25;5067326;28;20017;-67
2022/12/26 05:28:41;;;;;;;0.50;0.50;;;;;;;3.81;100.00;99616.41;5067126;28;20105;-67
2022/12/26 05:31:12;;;;;;;0.50;0.50;;;;;;;3.83;100.00;99614.72;5066988;28;20060;-67
2022/12/26 05:36:27;;;;;;;0.50;0.50;;;;;;;3.83;100.00;99605.28;5066973;28;20044;-67
2022/12/26 05:38:55;;;;;;;0.50;0.50;;;;;;;3.83;100.00;99612.16;5065332;28;20031;-67
2022/12/26 05:41:21;;;;;;;0.50;0.50;;;;;;;3.83;100.00;99607.88;5066391;28;20025;-68
2022/12/26 05:43:46;;;;;;;0.50;0.50;;;;;;;3.84;100.00;99608.72;5066656;28;20028;-67
2022/12/26 05:46:12;;;;;;;0.50;0.50;;;;;;;3.84;100.00;99604.47;5066795;28;20059;-67
2022/12/26 05:48:37;;;;;;;0.60;0.60;;;;;;;3.86;100.00;99596.78;5064959;28;20400;-67
2022/12/26 05:51:03;;;;;;;0.50;0.50;;;;;;;3.82;100.00;99580.47;5066618;28;20021;-66
2022/12/26 05:53:29;;;;;;;0.50;0.50;;;;;;;3.85;100.00;99582.19;5066184;28;20108;-67
2022/12/26 05:55:55;;;;;;;0.40;0.40;;;;;;;3.87;100.00;99572.81;5066207;28;20056;-67
2022/12/26 05:58:21;;;;;;;0.70;0.70;;;;;;;3.86;100.00;99571.09;5064954;28;20127;-67
2022/12/26 06:00:46;;;;;;;0.50;0.50;;;;;;;3.87;100.00;99577.94;5066422;28;20096;-67
2022/12/26 06:03:12;;;;;;;0.50;0.50;;;;;;;3.87;100.00;99567.66;5066347;28;20032;-69
2022/12/26 06:05:37;;;;;;;0.50;0.50;;;;;;;3.86;100.00;99581.38;5066408;28;20099;-67
2022/12/26 06:08:03;;;;;;;0.47;0.47;;;;;;;3.81;100.00;99567.63;5066401;28;20049;-67
2022/12/26 06:10:28;;;;;;;0.50;0.50;;;;;;;3.87;100.00;99567.66;5066065;28;20081;-68
2022/12/26 06:12:58;;;;;;;0.40;0.40;;;;;;;3.86;100.00;99565.97;5066129;28;20108;-66
2022/12/26 06:15:24;;;;;;;0.50;0.50;;;;;;;3.88;100.00;99568.53;5066282;28;20076;-67
2022/12/26 06:17:49;;;;;;;1.35;1.25;;;;;;;3.82;100.00;99559.94;5066174;28;20040;-66
2022/12/26 06:20:14;;;;;;;1.70;1.60;;;;;;;3.87;100.00;99561.66;5064913;28;20096;-67
2022/12/26 06:22:40;;;;;;;0.50;0.50;;;;;;;3.87;100.00;99556.53;5065922;28;20032;-67
2022/12/26 06:25:06;;;;;;;0.50;0.50;;;;;;;3.88;100.00;99553.13;5065874;28;20020;-67
2022/12/26 06:27:31;;;;;;;0.50;0.50;;;;;;;3.85;100.00;99546.25;5065893;28;20540;-68
2022/12/26 06:29:57;;;;;;;0.50;0.50;;;;;;;3.87;100.00;99543.69;5065943;28;20025;-67
2022/12/26 06:32:22;;;;;;;0.50;0.50;;;;;;;3.86;100.00;99547.97;5065791;28;20044;-68
2022/12/26 06:34:48;;;;;;;0.50;0.50;;;;;;;3.82;100.00;99528.25;5065734;28;20025;-67
2022/12/26 06:37:13;;;;;;;0.50;0.50;;;;;;;3.84;100.00;99536.84;5065902;28;20431;-67
2022/12/26 06:39:39;;;;;;;0.50;0.50;;;;;;;3.83;100.00;99550.53;5065486;28;20365;-67
2022/12/26 06:42:04;;;;;;;1.45;1.35;;;;;;;3.81;100.00;99547.97;5065801;28;20025;-67
2022/12/26 06:44:30;;;;;;;0.50;0.50;;;;;;;3.83;100.00;99555.66;5065676;28;20029;-68
2022/12/26 06:46:55;;;;;;;0.50;0.50;;;;;;;3.79;100.00;99544.50;5065544;28;20112;-66
2022/12/26 06:49:21;;;;;;;0.50;0.50;;;;;;;3.81;100.00;99544.53;5065366;28;20052;-67
2022/12/26 06:51:46;;;;;;;0.50;0.50;;;;;;;3.81;100.00;99542.81;5065301;28;20059;-67
2022/12/26 06:54:12;;;;;;;0.50;0.50;;;;;;;3.81;100.00;99542.81;5065233;28;20020;-67
2022/12/26 06:56:37;;;;;;;0.50;0.50;;;;;;;3.81;100.00;99540.25;5065235;28;20060;-67
2022/12/26 06:59:04;;;;;;;0.50;0.50;;;;;;;3.81;100.00;99540.25;5065037;28;20036;-66
2022/12/26 07:01:32;;;;;;;0.50;0.50;;;;;;;3.80;100.00;99529.97;5065193;28;20032;-67
2022/12/26 07:03:58;;;;;;;0.50;0.50;;;;;;;3.80;100.00;99525.69;5065014;28;20063;-68
2022/12/26 07:06:24;;;;;;;0.50;0.50;;;;;;;3.84;100.00;99536.84;5063825;28;20021;-67
2022/12/26 07:08:50;;;;;;;0.50;0.50;;;;;;;3.83;100.00;99535.97;5065210;28;20055;-68
2022/12/26 07:11:19;;;;;;;0.50;0.50;;;;;;;3.82;100.00;99531.69;5063684;28;20021;-67
2022/12/26 07:13:44;;;;;;;0.60;0.60;;;;;;;3.82;100.00;99536.81;5065043;28;20025;-67
2022/12/26 07:16:11;;;;;;;0.68;0.68;;;;;;;3.83;100.00;99535.97;5065296;28;20085;-67
2022/12/26 07:18:36;;;;;;;0.50;0.50;;;;;;;3.82;100.00;99529.13;5064910;28;20069;-67
2022/12/26 07:21:07;;;;;;;0.95;0.95;;;;;;;3.80;100.00;99538.53;5065072;28;20029;-67
2022/12/26 07:23:32;;;;;;;0.50;0.50;;;;;;;3.80;100.00;99519.72;5064794;28;20025;-68
2022/12/26 07:25:58;;;;;;;0.50;0.50;;;;;;;3.79;100.00;99523.09;5064179;28;20079;-67
2022/12/26 07:28:24;;;;;;;0.40;0.40;;;;;;;3.78;100.00;99522.28;5064966;28;20025;-68
2022/12/26 07:30:50;;;;;;;0.50;0.50;;;;;;;3.79;100.00;99520.53;5064906;28;20029;-68
2022/12/26 07:33:16;;;;;;;0.50;0.50;;;;;;;3.79;100.00;99523.09;5063690;28;20039;-68
2022/12/26 07:35:42;;;;;;;0.50;0.50;;;;;;;3.75;100.00;99517.13;5064914;28;20029;-67
2022/12/26 07:38:08;;;;;;;0.50;0.50;;;;;;;3.79;100.00;99517.97;5064769;28;20025;-67
2022/12/26 07:40:33;;;;;;;0.50;0.50;;;;;;;3.81;100.00;99521.41;5064527;28;20073;-68
2022/12/26 07:42:59;;;;;;;0.40;0.40;;;;;;;3.82;100.00;99520.56;5064637;28;20025;-67
2022/12/26 07:45:24;;;;;;;0.50;0.50;;;;;;;3.82;100.00;99510.28;5064740;28;20306;-67
2022/12/26 07:47:54;;;;;;;0.50;0.50;;;;;;;3.82;100.00;99511.16;5064458;28;20049;-67
2022/12/26 07:50:20;;;;;;;0.50;0.50;;;;;;;3.84;100.00;99506.03;5064674;28;20021;-68
2022/12/26 07:52:46;;;;;;;0.50;0.50;;;;;;;3.85;100.00;99502.59;5064395;28;20029;-67
2022/12/26 07:55:11;;;;;;;0.50;0.50;;;;;;;3.85;100.00;99507.72;5064352;28;20067;-67
2022/12/26 07:57:37;;;;;;;3.67;1.63;;;;;;;3.82;100.00;99492.31;5064490;28;20021;-66
2022/12/26 08:00:04;;;;;;;0.50;0.50;;;;;;;3.81;100.00;99491.47;5064533;28;20029;-67
2022/12/26 08:02:29;;;;;;;0.50;0.50;;;;;;;3.79;100.00;99493.16;5064541;28;20388;-66
2022/12/26 08:04:55;;;;;;;0.50;0.50;;;;;;;3.78;100.00;99491.47;5063112;28;20029;-67
2022/12/26 08:07:20;;;;;;;0.50;0.50;;;;;;;3.80;100.00;99499.16;5064499;28;20056;-67
2022/12/26 08:09:46;;;;;;;0.50;0.50;;;;;;;3.81;100.00;99509.44;5064082;28;20279;-67
2022/12/26 08:12:12;;;;;;;0.50;0.50;;;;;;;3.80;100.00;99488.91;5064544;28;20073;-68
2022/12/26 08:14:38;;;;;;;0.50;0.50;;;;;;;3.77;100.00;99478.63;5064312;28;20538;-67
2022/12/26 08:17:03;;;;;;;0.50;0.50;;;;;;;3.83;100.00;99491.47;5064497;28;20033;-68
2022/12/26 08:19:29;;;;;;;0.50;0.50;;;;;;;3.83;100.00;99486.34;5064432;28;20025;-66
2022/12/26 08:21:54;;;;;;;0.50;0.50;;;;;;;3.81;100.00;99482.91;5062888;28;20017;-67
2022/12/26 08:24:19;;;;;;;0.50;0.50;;;;;;;3.82;100.00;99485.47;5064167;28;20036;-68
2022/12/26 08:26:45;;;;;;;0.50;0.50;;;;;;;3.84;100.00;99477.78;5064022;28;20044;-67
2022/12/26 08:29:10;;;;;;;0.50;0.50;;;;;;;3.77;100.00;99463.22;5062868;28;20021;-69
2022/12/26 08:31:36;;;;;;;4.43;2.80;;;;;;;3.86;100.00;99468.38;5064023;28;20500;-68
2022/12/26 08:34:01;;;;;;;0.50;0.50;;;;;;;3.85;100.00;99461.50;5063806;28;20040;-66
2022/12/26 08:36:27;;;;;;;0.70;0.70;;;;;;;3.88;100.00;99465.81;5062776;28;20062;-67
2022/12/26 08:38:53;;;;;;;0.50;0.50;;;;;;;3.87;100.00;99454.69;5066995;28;20033;-68
2022/12/26 08:41:19;;;;;;;0.50;0.50;;;;;;;3.88;100.00;99458.97;5067739;28;20562;-68
2022/12/26 08:43:49;;;;;;;0.50;0.50;;;;;;;3.86;100.00;99452.09;5068002;28;20079;-68
2022/12/26 08:46:16;;;;;;;0.50;0.50;;;;;;;3.89;100.00;99455.56;5068097;28;20047;-68
2022/12/26 08:48:41;;;;;;;0.50;0.50;;;;;;;3.88;100.00;99450.41;5067568;28;20076;-68
2022/12/26 08:51:13;;;;;;;0.50;0.50;;;;;;;3.87;100.00;99454.69;5068019;28;20021;-69
2022/12/26 08:53:39;;;;;;;0.50;0.50;;;;;;;3.85;100.00;99440.97;5067573;28;20060;-69
2022/12/26 08:56:07;;;;;;;0.43;0.43;;;;;;;3.89;100.00;99442.72;5067629;28;20056;-67
2022/12/26 08:58:34;;;;;;;0.52;0.52;;;;;;;3.88;100.00;99446.13;5067947;28;20525;-67
2022/12/26 09:01:17;;;;;;;0.50;0.50;;;;;;;3.90;100.00;99449.56;5067543;28;20507;-67
2022/12/26 09:03:43;;;;;;;0.50;0.50;;;;;;;3.89;100.00;99447.84;5066234;28;20020;-68
2022/12/26 09:06:10;;;;;;;0.50;0.50;;;;;;;3.90;100.00;99452.13;5067839;28;20059;-68
2022/12/26 09:08:36;;;;;;;0.50;0.50;;;;;;;3.91;100.00;99442.72;5067568;28;20021;-67
2022/12/26 09:11:04;;;;;;;0.50;0.50;;;;;;;3.92;100.00;99439.28;5067113;28;20028;-67
2022/12/26 09:13:31;;;;;;;0.60;0.60;;;;;;;3.92;100.00;99437.59;5065999;28;20048;-68
2022/12/26 09:16:13;;;;;;;0.60;0.60;;;;;;;3.94;100.00;99437.59;5067294;28;20039;-67
2022/12/26 09:18:39;;;;;;;0.50;0.50;;;;;;;3.94;100.00;99435.88;5067369;28;20041;-67
2022/12/26 09:21:11;;;;;;;0.50;0.50;;;;;;;3.96;100.00;99429.03;5065840;28;20033;-66
2022/12/26 09:23:37;;;;;;;0.50;0.50;;;;;;;3.97;100.00;99428.19;5067047;28;20021;-67
2022/12/26 09:26:04;;;;;;;0.50;0.50;;;;;;;3.95;100.00;99419.63;5066846;28;20025;-67
2022/12/26 09:28:29;;;;;;;0.50;0.50;;;;;;;3.96;100.00;99428.19;5067021;28;20080;-69
2022/12/26 09:30:59;;;;;;;0.50;0.50;;;;;;;3.96;100.00;99426.44;5066933;28;20025;-67
2022/12/26 09:33:24;;;;;;;0.50;0.50;;;;;;;4.00;100.00;99421.31;5066959;28;20013;-68
2022/12/26 09:35:50;;;;;;;0.50;0.50;;;;;;;4.02;100.00;99422.19;5066852;28;20086;-67
2022/12/26 09:38:15;;;;;;;0.60;0.60;;;;;;;4.02;100.00;99414.50;5066684;28;20059;-66
2022/12/26 09:40:54;;;;;;;0.50;0.50;;;;;;;4.02;100.00;99422.19;5066825;28;20028;-67
2022/12/26 09:43:45;;;;;;;0.50;0.50;;;;;;;4.02;100.00;99409.34;5066784;28;20042;-66
2022/12/26 09:46:33;;;;;;;0.50;0.50;;;;;;;4.05;100.00;99401.66;5055321;28;20036;-70
2022/12/26 09:49:24;;;;;;;0.50;0.50;;;;;;;4.02;100.00;99397.38;5062337;28;20055;-67
2022/12/26 09:51:55;;;;;;;0.50;0.50;;;;;;;4.01;100.00;99399.94;5066613;28;20279;-64
2022/12/26 09:54:33;;;;;;;0.50;0.50;;;;;;;4.03;100.00;99388.81;5066531;28;20028;-67
2022/12/26 09:57:02;;;;;;;0.50;0.50;;;;;;;4.04;100.00;99387.09;5066540;28;20025;-66
2022/12/26 09:59:33;;;;;;;0.50;0.50;;;;;;;4.01;100.00;99384.53;5066549;28;20055;-66
2022/12/26 10:01:58;;;;;;;0.55;0.55;;;;;;;4.06;100.00;99387.94;5066452;28;20024;-66
2022/12/26 10:04:26;;;;;;;0.50;0.50;;;;;;;4.07;100.00;99379.41;5066421;28;20120;-65
2022/12/26 10:07:12;;;;;;;0.50;0.50;;;;;;;4.09;100.00;99387.94;5066530;28;20418;-68
2022/12/26 10:09:58;;;;;;;0.50;0.50;;;;;;;4.09;100.00;99386.25;5055128;28;20041;-68
2022/12/26 10:12:45;;;;;;;0.50;0.50;;;;;;;4.10;100.00;99371.69;5066624;28;20048;-67
2022/12/26 10:15:40;;;;;;;0.50;0.50;;;;;;;4.10;100.00;99366.56;5066525;28;20078;-67
2022/12/26 10:18:22;;;;;;;0.50;0.50;;;;;;;4.10;100.00;99361.44;5066206;28;20032;-68
2022/12/26 10:21:10;;;;;;;0.60;0.60;;;;;;;4.10;100.00;99361.44;5066121;28;20092;-66
2022/12/26 10:23:38;;;;;;;0.50;0.50;;;;;;;4.08;100.00;99340.00;5066156;28;20037;-68
2022/12/26 10:26:10;;;;;;;0.50;0.50;;;;;;;4.11;100.00;99346.84;5065683;28;20021;-68
2022/12/26 10:28:43;;;;;;;0.50;0.50;;;;;;;4.12;100.00;99338.31;5066076;28;20101;-67
2022/12/26 10:31:36;;;;;;;0.50;0.50;;;;;;;4.13;100.00;99345.16;5065777;28;20032;-65
2022/12/26 10:34:29;;;;;;;0.50;0.50;;;;;;;4.13;100.00;99350.28;5065752;28;20045;-66
2022/12/26 10:37:09;;;;;;;0.50;0.50;;;;;;;4.12;100.00;99328.88;5065866;28;20024;-65
2022/12/26 10:39:55;;;;;;;0.50;0.50;;;;;;;4.11;100.00;99329.72;5065136;28;20100;-66
2022/12/26 10:42:26;;;;;;;0.50;0.50;;;;;;;4.12;100.00;99326.31;5062966;28;20017;-68
2022/12/26 10:44:52;;;;;;;0.50;0.50;;;;;;;4.12;100.00;99316.03;5064705;28;20053;-66
2022/12/26 10:47:32;;;;;;;0.50;0.50;;;;;;;4.13;100.00;99322.03;5065480;28;20056;-67
2022/12/26 10:49:58;;;;;;;0.50;0.50;;;;;;;4.14;100.00;99329.72;5065499;28;20037;-66
2022/12/26 10:52:30;;;;;;;0.50;0.50;;;;;;;4.17;100.00;99316.06;5066753;28;20029;-65
2022/12/26 10:54:58;;;;;;;0.50;0.50;;;;;;;4.15;100.00;99321.19;5063825;28;20043;-71
2022/12/26 10:57:29;;;;;;;0.50;0.50;;;;;;;4.23;100.00;99321.19;5065528;28;20408;-67
2022/12/26 10:59:56;;;;;;;0.57;0.57;;;;;;;4.24;100.00;99317.75;5064264;28;20049;-64
2022/12/26 11:02:30;;;;;;;0.60;0.60;;;;;;;4.31;100.00;99323.75;5065579;28;20017;-68
2022/12/26 11:05:11;;;;;;;0.50;0.50;;;;;;;4.28;100.00;99311.75;5065327;28;20029;-67
2022/12/26 11:07:50;;;;;;;0.70;0.70;;;;;;;4.26;100.00;99320.31;5065256;28;20127;-68
2022/12/26 11:10:20;;;;;;;0.60;0.60;;;;;;;4.19;100.00;99322.91;5063646;28;20029;-69
2022/12/26 11:13:03;;;;;;;0.50;0.50;;;;;;;4.19;100.00;99307.47;5063815;28;20032;-67
2022/12/26 11:15:28;;;;;;;0.50;0.50;;;;;;;4.46;100.00;99304.88;5065107;28;20031;-67
2022/12/26 11:18:05;;;;;;;0.60;0.60;;;;;;;4.32;100.00;99307.47;5065262;28;20025;-67
2022/12/26 11:20:30;;;;;;;0.50;0.50;;;;;;;4.50;100.00;99306.63;5064981;28;20029;-67
2022/12/26 11:23:23;;;;;;;0.50;0.50;;;;;;;4.31;100.00;99304.03;5065185;28;20097;-67
2022/12/26 11:25:53;;;;;;;0.50;0.50;;;;;;;4.26;100.00;99297.19;5064720;28;20036;-68
2022/12/26 11:28:27;;;;;;;0.50;0.50;;;;;;;4.24;100.00;99298.91;5065100;28;20029;-68
2022/12/26 11:30:53;;;;;;;0.50;0.50;;;;;;;4.21;100.00;99297.22;5064969;28;20051;-67
2022/12/26 11:33:29;;;;;;;0.50;0.50;;;;;;;4.24;100.00;99306.63;5064844;28;20021;-66
2022/12/26 11:36:09;;;;;;;0.50;0.50;;;;;;;4.21;100.00;99280.09;5064615;28;20024;-66
2022/12/26 11:38:45;;;;;;;0.50;0.50;;;;;;;4.23;100.00;99272.38;5063375;28;20098;-67
2022/12/26 11:41:30;;;;;;;0.50;0.50;;;;;;;4.22;100.00;99271.50;5064634;28;20050;-67
2022/12/26 11:44:12;;;;;;;0.60;0.60;;;;;;;4.16;100.00;99265.50;5064953;28;20025;-69
2022/12/26 11:46:44;;;;;;;0.50;0.50;;;;;;;4.19;100.00;99256.09;5064468;28;20029;-67
2022/12/26 11:49:23;;;;;;;0.50;0.50;;;;;;;4.19;100.00;99256.09;5064328;28;20095;-66
2022/12/26 11:51:50;;;;;;;0.55;0.55;;;;;;;4.18;100.00;99233.84;5064639;28;20037;-66
2022/12/26 11:54:22;;;;;;;0.50;0.50;;;;;;;4.16;100.00;99232.13;5064508;28;20031;-66
2022/12/26 11:56:58;;;;;;;0.50;0.50;;;;;;;4.30;100.00;99214.09;5064450;28;20089;-68
2022/12/26 11:59:23;;;;;;;0.50;0.50;;;;;;;4.38;100.00;99214.13;5064399;28;20033;-67
2022/12/26 12:02:15;;;;;;;0.50;0.50;;;;;;;4.38;100.00;99204.66;5064689;28;20029;-66
2022/12/26 12:04:40;;;;;;;0.60;0.60;;;;;;;4.35;100.00;99207.25;5064501;28;20044;-66
2022/12/26 12:07:28;;;;;;;0.50;0.50;;;;;;;4.27;100.00;99202.13;5062920;28;20484;-68
2022/12/26 12:10:32;;;;;;;0.50;0.50;;;;;;;4.38;100.00;99199.53;5064321;28;20028;-67
2022/12/26 12:13:08;;;;;;;0.50;0.50;;;;;;;4.27;100.00;99180.72;5066475;28;20020;-67
2022/12/26 12:15:52;;;;;;;0.50;0.50;;;;;;;4.28;100.00;99177.31;5068579;28;20024;-67
2022/12/26 12:18:45;;;;;;;0.43;0.43;;;;;;;4.20;100.00;99165.31;5067068;28;20040;-67
2022/12/26 12:21:26;;;;;;;0.50;0.50;;;;;;;4.28;100.00;99151.63;5058262;28;20068;-67
2022/12/26 12:24:29;;;;;;;0.50;0.50;;;;;;;4.45;100.00;99165.25;5068311;28;20036;-67
2022/12/26 12:27:16;;;;;;;0.50;0.50;;;;;;;4.47;100.00;99158.38;5068166;28;20088;-67
2022/12/26 12:29:57;;;;;;;0.50;0.50;;;;;;;4.22;100.00;99150.75;5068273;28;20017;-67
2022/12/26 12:32:44;;;;;;;0.60;0.60;;;;;;;4.33;100.00;99152.44;5067744;28;20029;-68
2022/12/26 12:35:19;;;;;;;0.50;0.50;;;;;;;4.26;100.00;99140.47;5067914;28;20031;-67
2022/12/26 12:38:03;;;;;;;0.50;0.50;;;;;;;4.24;100.00;99144.75;5068172;28;20028;-66
2022/12/26 12:40:34;;;;;;;0.60;0.60;;;;;;;4.59;100.00;99130.94;5067692;28;20115;-66
2022/12/26 12:43:18;;;;;;;0.60;0.60;;;;;;;4.53;100.00;99123.25;5068089;28;20067;-67
2022/12/26 12:46:02;;;;;;;0.50;0.50;;;;;;;4.37;100.00;99125.88;5067693;28;20308;-67
2022/12/26 12:48:47;;;;;;;0.50;0.50;;;;;;;4.43;100.00;99114.72;5067783;28;20056;-67
2022/12/26 12:51:21;;;;;;;0.50;0.50;;;;;;;4.31;100.00;99123.34;5066757;28;20044;-67
2022/12/26 12:54:28;;;;;;;0.50;0.50;;;;;;;4.29;100.00;99122.47;5065821;28;20405;-68
2022/12/26 12:57:10;;;;;;;0.50;0.50;;;;;;;4.26;100.00;99125.91;5062724;28;20048;-67
2022/12/26 12:59:44;;;;;;;0.60;0.60;;;;;;;4.34;100.00;99113.88;5066390;28;20033;-68
2022/12/26 13:02:19;;;;;;;0.50;0.50;;;;;;;4.29;100.00;99114.78;5067517;28;20325;-67
2022/12/26 13:04:50;;;;;;;0.52;0.52;;;;;;;4.30;100.00;99101.06;5067693;28;20091;-67
2022/12/26 13:07:22;;;;;;;0.50;0.50;;;;;;;4.23;100.00;99097.69;5067596;28;20104;-67
2022/12/26 13:09:55;;;;;;;;;;;;;;;4.25;100.00;99095.94;5067788;28;20025;-67
2022/12/26 13:12:25;;;;;;;0.50;0.50;;;;;;;4.24;100.00;99090.81;5067406;28;19926;-68
2022/12/26 13:14:59;;;;;;;0.50;0.50;;;;;;;4.17;100.00;99097.69;5067307;28;20017;-68
2022/12/26 13:17:58;;;;;;;0.50;0.50;;;;;;;4.14;100.00;99084.88;5067423;28;20017;-67
2022/12/26 13:20:39;;;;;;;0.50;0.50;;;;;;;4.00;100.00;99069.47;5065364;28;20047;-67
2022/12/26 13:26:13;;;;;;;0.50;0.50;;;;;;;3.99;100.00;99075.47;5066890;28;20099;-67
2022/12/26 13:28:49;;;;;;;0.50;0.50;;;;;;;4.00;100.00;99069.47;5065945;28;20020;-67
2022/12/26 13:31:14;;;;;;;0.50;0.50;;;;;;;3.93;100.00;99069.50;5067114;28;20047;-66
2022/12/26 13:33:41;;;;;;;0.50;0.50;;;;;;;3.96;100.00;99074.63;5066759;28;20481;-64
2022/12/26 13:36:07;;;;;;;0.65;0.65;;;;;;;4.03;100.00;99079.75;5067066;28;20054;-67
2022/12/26 13:39:11;;;;;;;0.50;0.50;;;;;;;4.05;100.00;99067.75;5066723;28;20029;-67
2022/12/26 13:44:36;;;;;;;0.50;0.50;;;;;;;4.03;100.00;99052.34;5044392;28;20036;-67
2022/12/26 13:47:02;;;;;;;0.50;0.50;;;;;;;4.05;100.00;99052.34;5044328;28;20029;-68
2022/12/26 13:49:35;;;;;;;0.50;0.50;;;;;;;4.28;100.00;99054.81;5044281;28;20046;-70
2022/12/26 13:52:10;;;;;;;0.70;0.70;;;;;;;4.46;100.00;99043.59;5044221;28;20105;-67
2022/12/26 13:54:57;;;;;;;0.50;0.50;;;;;;;4.41;100.00;99045.34;5027343;28;20032;-67
2022/12/26 13:57:33;;;;;;;0.50;0.50;;;;;;;4.26;100.00;99041.13;5043727;28;20104;-68
2022/12/26 14:00:16;;;;;;;0.50;0.50;;;;;;;4.24;100.00;99031.72;5027541;28;20026;-69
2022/12/26 14:03:19;;;;;;;3.13;2.25;;;;;;;4.29;100.00;99029.97;5044223;28;20033;-69